This is the latest recevied weather packets stored in our database for station/object IZ1RFL-3. If no packets are shown the sender has not sent any weather packets the latest 10 day(s).
| Time | Temp. | Humidity | Pressure | Rain* | Wind** | Luminosity | Snow |
|---|---|---|---|---|---|---|---|
| 1778074267 | 22.22° C | 45% | 1007.5 hPa | - | - | - | - |
| 1778073367 | 21.67° C | 51% | 1007.5 hPa | - | - | - | - |
| 1778072467 | 22.78° C | 49% | 1007.7 hPa | - | - | - | - |
| 1778071567 | 22.78° C | 47% | 1007.8 hPa | - | - | - | - |
| 1778070667 | 22.22° C | 51% | 1007.8 hPa | - | - | - | - |
| 1778069767 | 22.22° C | 49% | 1007.9 hPa | - | - | - | - |
| 1778068867 | 23.33° C | 48% | 1008 hPa | - | - | - | - |
| 1778067967 | 22.78° C | 48% | 1008 hPa | - | - | - | - |
| 1778067067 | 21.11° C | 54% | 1008.1 hPa | - | - | - | - |
| 1778066167 | 20.56° C | 54% | 1008.2 hPa | - | - | - | - |
| 1778065267 | 18.89° C | 57% | 1008.4 hPa | - | - | - | - |
| 1778064367 | 20.56° C | 53% | 1008.5 hPa | - | - | - | - |
| 1778063467 | 20.56° C | 55% | 1008.7 hPa | - | - | - | - |
| 1778062567 | 17.78° C | 61% | 1008.8 hPa | - | - | - | - |
| 1778061667 | 17.78° C | 60% | 1008.9 hPa | - | - | - | - |
| 1778060767 | 18.33° C | 60% | 1009 hPa | - | - | - | - |
| 1778059867 | 17.22° C | 65% | 1009.1 hPa | - | - | - | - |
| 1778058967 | 17.78° C | 60% | 1009.1 hPa | - | - | - | - |
| 1778058067 | 16.67° C | 72% | 1009.2 hPa | - | - | - | - |
| 1778057167 | 16.67° C | 68% | 1009.1 hPa | - | - | - | - |
| 1778056267 | 15.56° C | 67% | 1009.2 hPa | - | - | - | - |
| 1778055367 | 16.11° C | 75% | 1009.2 hPa | - | - | - | - |
| 1778054467 | 15° C | 76% | 1009.3 hPa | - | - | - | - |
| 1778053567 | 14.44° C | 80% | 1009.3 hPa | - | - | - | - |
| 1778052666 | 15° C | 79% | 1009.3 hPa | - | - | - | - |
* Rain since midnight (hover to see other rain measurements)
** Current wind speed in m/s (hover to see current wind gust speed)